createdAt,value
2023-01-05T00:01:48.877Z,7.15
2023-01-05T00:04:18.343Z,7.16
2023-01-05T00:06:46.353Z,7.18
2023-01-05T00:09:16.833Z,7.19
2023-01-05T00:12:04.512Z,7.20
2023-01-05T00:14:53.567Z,7.22
2023-01-05T00:17:41.602Z,7.23
2023-01-05T00:20:32.348Z,7.25
2023-01-05T00:23:02.209Z,7.27
2023-01-05T00:25:31.142Z,7.30
2023-01-05T00:27:58.901Z,7.32
2023-01-05T00:30:32.710Z,7.35
2023-01-05T00:33:09.284Z,7.37
2023-01-05T00:35:39.392Z,7.38
2023-01-05T00:38:09.927Z,7.41
2023-01-05T00:40:39.918Z,7.42
2023-01-05T00:43:10.718Z,7.44
2023-01-05T00:45:38.897Z,7.45
2023-01-05T00:48:06.938Z,7.46
2023-01-05T00:50:36.867Z,7.50
2023-01-05T00:53:07.242Z,7.52
2023-01-05T00:55:36.545Z,7.54
2023-01-05T00:58:04.484Z,7.55
2023-01-05T01:00:32.545Z,7.57
2023-01-05T01:03:04.738Z,7.59
2023-01-05T01:05:33.153Z,7.60
2023-01-05T01:08:03.158Z,7.60
2023-01-05T01:10:37.231Z,7.60
2023-01-05T01:13:05.251Z,7.61
2023-01-05T01:15:33.107Z,7.61
2023-01-05T01:18:01.045Z,7.63
2023-01-05T01:20:31.044Z,7.63
2023-01-05T01:23:06.600Z,7.63
2023-01-05T01:25:36.009Z,7.63
2023-01-05T01:28:08.539Z,7.61
2023-01-05T01:30:41.682Z,7.61
2023-01-05T01:33:15.909Z,7.60
2023-01-05T01:35:45.971Z,7.59
2023-01-05T01:38:14.615Z,7.58
2023-01-05T01:40:44.419Z,7.57
2023-01-05T01:43:16.509Z,7.56
2023-01-05T01:45:52.599Z,7.54
2023-01-05T01:48:22.291Z,7.52
2023-01-05T01:51:08.317Z,7.51
2023-01-05T01:53:46.195Z,7.50
2023-01-05T01:56:19.192Z,7.51
2023-01-05T01:58:57.503Z,7.53
2023-01-05T02:01:27.737Z,7.54
2023-01-05T02:03:56.477Z,7.56
2023-01-05T02:06:25.548Z,7.59
2023-01-05T02:08:57.356Z,7.62
2023-01-05T02:11:37.881Z,7.65
2023-01-05T02:14:15.261Z,7.69
2023-01-05T02:16:48.984Z,7.72
2023-01-05T02:19:41.645Z,7.75
2023-01-05T02:22:24.422Z,7.79
2023-01-05T02:25:06.886Z,7.83
2023-01-05T02:27:49.549Z,7.86
2023-01-05T02:30:42.643Z,7.89
2023-01-05T02:33:17.800Z,7.92
2023-01-05T02:35:54.083Z,7.96
2023-01-05T02:38:31.211Z,7.98
2023-01-05T02:41:06.122Z,8.00
2023-01-05T02:43:36.861Z,8.02
2023-01-05T02:46:05.741Z,8.04
2023-01-05T02:48:42.890Z,8.05
2023-01-05T02:51:15.069Z,8.07
2023-01-05T02:53:55.156Z,8.07
2023-01-05T02:56:30.503Z,8.05
2023-01-05T02:59:01.440Z,8.03
2023-01-05T03:01:32.521Z,8.02
2023-01-05T03:04:03.659Z,8.02
2023-01-05T03:06:34.515Z,8.02
2023-01-05T03:09:06.036Z,8.02
2023-01-05T03:11:57.210Z,8.04
2023-01-05T03:14:31.195Z,8.06
2023-01-05T03:17:04.603Z,8.08
2023-01-05T03:19:39.103Z,8.10
2023-01-05T03:22:29.152Z,8.11
2023-01-05T03:25:15.780Z,8.11
2023-01-05T03:28:10.391Z,8.11
2023-01-05T03:31:12.381Z,8.11
2023-01-05T03:34:29.351Z,8.11
2023-01-05T03:37:09.149Z,8.10
2023-01-05T03:39:42.160Z,8.10
2023-01-05T03:42:22.503Z,8.10
2023-01-05T03:44:55.663Z,8.09
2023-01-05T03:47:25.242Z,8.09
2023-01-05T03:49:53.445Z,8.09
2023-01-05T03:52:26.640Z,8.10
2023-01-05T03:55:04.691Z,8.11
2023-01-05T03:57:33.266Z,8.10
2023-01-05T04:00:01.269Z,8.08
2023-01-05T04:02:29.732Z,8.07
2023-01-05T04:04:58.066Z,8.03
2023-01-05T04:07:27.311Z,7.97
2023-01-05T04:09:57.659Z,7.95
2023-01-05T04:12:34.088Z,7.93
2023-01-05T04:15:03.421Z,7.91
2023-01-05T04:17:34.715Z,7.90
2023-01-05T04:20:05.584Z,7.90
2023-01-05T04:22:34.332Z,7.88
2023-01-05T04:25:02.725Z,7.88
2023-01-05T04:27:32.845Z,7.87
2023-01-05T04:30:01.024Z,7.86
2023-01-05T04:32:30.407Z,7.86
2023-01-05T04:34:58.911Z,7.86
2023-01-05T04:37:38.212Z,7.87
2023-01-05T04:40:08.439Z,7.85
2023-01-05T04:42:43.038Z,7.83
2023-01-05T04:45:11.437Z,7.81
2023-01-05T04:47:44.489Z,7.82
2023-01-05T04:50:15.474Z,7.83
2023-01-05T04:52:47.005Z,7.85
2023-01-05T04:55:15.118Z,7.85
2023-01-05T04:57:44.263Z,7.87
2023-01-05T05:00:14.388Z,7.87
2023-01-05T05:02:48.420Z,7.88
2023-01-05T05:05:17.187Z,7.89
2023-01-05T05:07:48.534Z,7.89
2023-01-05T05:10:17.660Z,7.89
2023-01-05T05:12:45.638Z,7.90
2023-01-05T05:15:14.483Z,7.90
2023-01-05T05:17:46.018Z,7.90
2023-01-05T05:20:15.909Z,7.88
2023-01-05T05:22:44.335Z,7.84
2023-01-05T05:25:14.124Z,7.80
2023-01-05T05:27:44.300Z,7.74
2023-01-05T05:30:12.996Z,7.70
2023-01-05T05:32:44.135Z,7.69
2023-01-05T05:35:12.541Z,7.68
2023-01-05T05:37:43.322Z,7.67
2023-01-05T05:40:12.581Z,7.66
2023-01-05T05:42:47.179Z,7.65
2023-01-05T05:45:15.447Z,7.63
2023-01-05T05:47:44.079Z,7.61
2023-01-05T05:50:11.895Z,7.60
2023-01-05T05:52:41.279Z,7.58
2023-01-05T05:55:10.286Z,7.56
2023-01-05T05:57:39.219Z,7.54
2023-01-05T06:00:08.401Z,7.51
2023-01-05T06:02:42.484Z,7.50
2023-01-05T06:05:13.525Z,7.48
2023-01-05T06:07:44.005Z,7.48
2023-01-05T06:10:13.879Z,7.47
2023-01-05T06:12:41.970Z,7.45
2023-01-05T06:15:13.011Z,7.42
2023-01-05T06:17:48.049Z,7.40
2023-01-05T06:20:17.110Z,7.36
2023-01-05T06:22:45.618Z,7.34
2023-01-05T06:25:16.023Z,7.33
2023-01-05T06:27:43.808Z,7.33
2023-01-05T06:30:13.930Z,7.34
2023-01-05T06:32:42.114Z,7.36
2023-01-05T06:35:10.965Z,7.39
2023-01-05T06:37:45.157Z,7.38
2023-01-05T06:40:13.232Z,7.38
2023-01-05T06:42:44.544Z,7.39
2023-01-05T06:45:14.061Z,7.40
2023-01-05T06:47:42.443Z,7.43
2023-01-05T06:50:11.008Z,7.44
2023-01-05T06:52:41.918Z,7.47
2023-01-05T06:55:10.909Z,7.50
2023-01-05T06:57:43.130Z,7.51
2023-01-05T07:00:14.001Z,7.53
2023-01-05T07:02:46.024Z,7.56
2023-01-05T07:05:14.377Z,7.57
2023-01-05T07:07:45.815Z,7.58
2023-01-05T07:10:13.991Z,7.58
2023-01-05T07:12:45.053Z,7.57
2023-01-05T07:15:13.517Z,7.57
2023-01-05T07:17:41.417Z,7.56
2023-01-05T07:20:12.922Z,7.56
2023-01-05T07:22:43.672Z,7.57
2023-01-05T07:25:11.528Z,7.59
2023-01-05T07:27:41.871Z,7.61
2023-01-05T07:30:14.043Z,7.64
2023-01-05T07:32:43.260Z,7.66
2023-01-05T07:35:11.084Z,7.70
2023-01-05T07:37:42.808Z,7.74
2023-01-05T07:40:13.516Z,7.78
2023-01-05T07:42:42.266Z,7.82
2023-01-05T07:45:12.338Z,7.87
2023-01-05T07:47:40.774Z,7.93
2023-01-05T07:50:13.077Z,7.97
2023-01-05T07:52:41.053Z,8.01
2023-01-05T07:55:13.314Z,8.05
2023-01-05T07:57:41.359Z,8.08
2023-01-05T08:00:10.496Z,8.09
2023-01-05T08:02:42.369Z,8.09
2023-01-05T08:05:10.495Z,8.08
2023-01-05T08:07:45.770Z,8.06
2023-01-05T08:10:29.332Z,8.01
2023-01-05T08:13:22.669Z,7.98
2023-01-05T08:15:53.427Z,7.96
2023-01-05T08:18:24.148Z,7.94
2023-01-05T08:20:52.766Z,7.95
2023-01-05T08:23:25.632Z,7.96
2023-01-05T08:25:54.653Z,7.97
2023-01-05T08:28:22.609Z,7.98
2023-01-05T08:30:52.178Z,8.00
2023-01-05T08:33:22.755Z,8.02
2023-01-05T08:35:53.592Z,8.06
2023-01-05T08:38:24.769Z,8.07
2023-01-05T08:40:59.575Z,8.08
2023-01-05T08:43:27.784Z,8.08
2023-01-05T08:45:56.080Z,8.08
2023-01-05T08:48:23.999Z,8.09
2023-01-05T08:50:52.472Z,8.10
2023-01-05T08:53:24.788Z,8.14
2023-01-05T08:55:52.636Z,8.17
2023-01-05T08:58:23.376Z,8.21
2023-01-05T09:00:53.905Z,8.26
2023-01-05T09:03:25.808Z,8.29
2023-01-05T09:05:54.503Z,8.30
2023-01-05T09:08:34.081Z,8.27
2023-01-05T09:11:14.425Z,8.22
2023-01-05T09:13:57.649Z,8.19
2023-01-05T09:17:05.329Z,8.13
2023-01-05T09:19:25.816Z,8.08
2023-01-05T09:21:58.917Z,8.04
2023-01-05T09:24:26.848Z,8.01
2023-01-05T09:26:55.466Z,8.03
2023-01-05T09:29:24.600Z,8.04
2023-01-05T09:31:55.930Z,8.02
2023-01-05T09:34:25.230Z,8.01
2023-01-05T09:36:53.165Z,8.04
2023-01-05T09:39:24.364Z,8.03
2023-01-05T09:41:58.364Z,8.02
2023-01-05T09:44:31.299Z,8.00
2023-01-05T09:47:02.394Z,7.97
2023-01-05T09:49:31.912Z,7.97
2023-01-05T09:52:02.886Z,8.00
2023-01-05T09:54:34.221Z,8.04
2023-01-05T09:57:37.350Z,8.07
2023-01-05T10:00:19.276Z,8.13
2023-01-05T10:02:50.440Z,8.19
2023-01-05T10:05:19.293Z,8.21
2023-01-05T10:07:53.722Z,8.24
2023-01-05T10:10:30.739Z,8.30
2023-01-05T10:13:05.033Z,8.31
2023-01-05T10:15:45.509Z,8.33
2023-01-05T10:18:17.860Z,8.52
2023-01-05T10:20:52.956Z,8.79
2023-01-05T10:23:30.985Z,8.97
2023-01-05T10:26:06.565Z,9.18
2023-01-05T10:28:40.574Z,9.48
2023-01-05T10:31:20.312Z,9.53
2023-01-05T10:34:05.990Z,9.86
2023-01-05T10:37:07.782Z,10.05
2023-01-05T10:39:55.777Z,10.01
2023-01-05T10:42:32.886Z,9.87
2023-01-05T10:45:08.546Z,9.72
2023-01-05T10:47:37.898Z,9.59
2023-01-05T10:50:21.294Z,9.48
2023-01-05T10:52:49.631Z,9.39
2023-01-05T10:55:19.324Z,9.31
2023-01-05T10:57:51.445Z,9.18
2023-01-05T11:00:20.524Z,9.12
2023-01-05T11:02:51.127Z,9.04
2023-01-05T11:05:37.288Z,8.92
2023-01-05T11:08:13.550Z,8.70
2023-01-05T11:10:49.064Z,8.56
2023-01-05T11:13:36.258Z,8.47
2023-01-05T11:16:09.639Z,8.43
2023-01-05T11:18:48.681Z,8.46
2023-01-05T11:21:20.066Z,8.53
2023-01-05T11:23:49.952Z,8.62
2023-01-05T11:26:31.915Z,8.66
2023-01-05T11:29:04.232Z,8.67
2023-01-05T11:31:37.016Z,8.68
2023-01-05T11:34:08.826Z,8.69
2023-01-05T11:36:40.853Z,8.72
2023-01-05T11:39:17.476Z,8.72
2023-01-05T11:41:48.003Z,8.71
2023-01-05T11:44:24.713Z,8.69
2023-01-05T11:46:57.359Z,8.69
2023-01-05T11:49:31.507Z,8.66
2023-01-05T11:51:59.323Z,8.61
2023-01-05T11:54:35.041Z,8.57
2023-01-05T11:57:25.064Z,8.55
2023-01-05T11:59:58.209Z,8.49
2023-01-05T12:02:44.955Z,8.47
2023-01-05T12:05:22.684Z,8.47
2023-01-05T12:07:53.690Z,8.43
2023-01-05T12:10:49.686Z,8.36
2023-01-05T12:13:43.257Z,8.29
2023-01-05T12:16:24.412Z,8.26
2023-01-05T12:19:02.007Z,8.25
2023-01-05T12:21:35.946Z,8.27
2023-01-05T12:24:24.140Z,8.29
2023-01-05T12:27:01.783Z,8.31
2023-01-05T12:34:01.440Z,8.28
2023-01-05T12:35:55.505Z,8.21
2023-01-05T12:38:24.666Z,8.17
2023-01-05T12:41:24.740Z,8.14
2023-01-05T12:44:01.494Z,8.11
2023-01-05T12:46:40.602Z,8.11
2023-01-05T12:49:15.387Z,8.10
2023-01-05T12:51:45.654Z,8.07
2023-01-05T12:54:24.067Z,8.00
2023-01-05T12:56:57.582Z,7.95
2023-01-05T12:59:34.689Z,7.90
2023-01-05T13:02:13.987Z,7.83
2023-01-05T13:04:48.587Z,7.74
2023-01-05T13:07:30.489Z,7.67
2023-01-05T13:10:10.082Z,7.61
2023-01-05T13:12:40.597Z,7.56
2023-01-05T13:15:16.669Z,7.50
2023-01-05T13:17:47.854Z,7.41
2023-01-05T13:20:28.541Z,7.33
2023-01-05T13:23:10.061Z,7.29
2023-01-05T13:25:45.853Z,7.22
2023-01-05T13:28:19.563Z,7.16
2023-01-05T13:31:07.474Z,7.12
2023-01-05T13:33:42.593Z,7.08
2023-01-05T13:36:20.101Z,7.07
2023-01-05T13:39:18.504Z,7.03
2023-01-05T13:42:26.637Z,6.98
2023-01-05T13:45:13.709Z,6.93
2023-01-05T13:47:57.324Z,6.89
2023-01-05T13:50:41.670Z,6.85
2023-01-05T13:53:18.009Z,6.81
2023-01-05T13:55:53.968Z,6.79
2023-01-05T13:58:42.778Z,6.78
2023-01-05T14:01:19.752Z,6.76
2023-01-05T14:03:57.912Z,6.75
2023-01-05T14:06:50.523Z,6.75
2023-01-05T14:09:34.560Z,6.72
2023-01-05T14:12:28.330Z,6.71
2023-01-05T14:15:01.283Z,6.70
2023-01-05T14:17:48.594Z,6.69
2023-01-05T14:20:37.815Z,6.69
2023-01-05T14:23:31.026Z,6.67
2023-01-05T14:26:00.987Z,6.64
2023-01-05T14:28:42.916Z,6.62
2023-01-05T14:31:37.029Z,6.59
2023-01-05T14:34:13.133Z,6.56
2023-01-05T14:36:44.556Z,6.53
2023-01-05T14:39:29.998Z,6.51
2023-01-05T14:42:03.997Z,6.50
2023-01-05T14:44:43.526Z,6.51
2023-01-05T14:47:12.238Z,6.52
2023-01-05T14:49:45.664Z,6.55
2023-01-05T14:52:48.326Z,6.58
2023-01-05T14:55:37.292Z,6.59
2023-01-05T14:58:14.249Z,6.59
2023-01-05T15:00:55.408Z,6.58
2023-01-05T15:03:29.016Z,6.56
2023-01-05T15:06:00.296Z,6.55
2023-01-05T15:08:42.867Z,6.52
2023-01-05T15:11:23.163Z,6.50
2023-01-05T15:14:21.354Z,6.51
2023-01-05T15:17:02.476Z,6.53
2023-01-05T15:19:46.021Z,6.56
2023-01-05T15:22:38.583Z,6.58
2023-01-05T15:25:23.831Z,6.62
2023-01-05T15:27:57.877Z,6.64
2023-01-05T15:30:43.781Z,6.65
2023-01-05T15:33:25.066Z,6.63
2023-01-05T15:35:55.755Z,6.61
2023-01-05T15:38:27.359Z,6.58
2023-01-05T15:41:00.207Z,6.57
2023-01-05T15:43:34.437Z,6.55
2023-01-05T15:46:02.847Z,6.53
2023-01-05T15:48:36.030Z,6.51
2023-01-05T15:51:05.995Z,6.49
2023-01-05T15:53:40.330Z,6.48
2023-01-05T15:56:25.094Z,6.47
2023-01-05T15:59:02.864Z,6.43
2023-01-05T16:02:02.580Z,6.38
2023-01-05T16:04:46.919Z,6.34
2023-01-05T16:07:18.586Z,6.31
2023-01-05T16:09:49.564Z,6.26
2023-01-05T16:12:27.554Z,6.23
2023-01-05T16:15:00.985Z,6.19
2023-01-05T16:17:30.592Z,6.15
2023-01-05T16:20:03.977Z,6.11
2023-01-05T16:22:40.635Z,6.07
2023-01-05T16:25:15.269Z,6.03
2023-01-05T16:27:48.338Z,6.00
2023-01-05T16:30:28.613Z,5.98
2023-01-05T16:32:58.427Z,5.96
2023-01-05T16:35:39.727Z,5.92
2023-01-05T16:38:26.579Z,5.87
2023-01-05T16:41:07.221Z,5.79
2023-01-05T16:43:39.741Z,5.74
2023-01-05T16:46:29.755Z,5.66
2023-01-05T16:49:03.351Z,5.57
2023-01-05T16:51:41.773Z,5.50
2023-01-05T16:54:20.824Z,5.44
2023-01-05T16:56:54.110Z,5.38
2023-01-05T16:59:42.379Z,5.34
2023-01-05T17:02:34.360Z,5.32
2023-01-05T17:05:02.524Z,5.32
2023-01-05T17:07:30.819Z,5.31
2023-01-05T17:09:59.502Z,5.29
2023-01-05T17:12:28.200Z,5.27
2023-01-05T17:15:02.801Z,5.24
2023-01-05T17:17:33.247Z,5.22
2023-01-05T17:20:01.361Z,5.20
2023-01-05T17:22:32.653Z,5.18
2023-01-05T17:27:37.396Z,5.12
2023-01-05T17:30:16.035Z,5.08
2023-01-05T17:32:43.877Z,5.03
2023-01-05T17:35:14.664Z,4.99
2023-01-05T17:37:44.724Z,4.96
2023-01-05T17:40:21.003Z,4.95
2023-01-05T17:42:50.488Z,4.96
2023-01-05T17:45:19.559Z,4.95
2023-01-05T17:47:48.333Z,4.92
2023-01-05T17:50:20.148Z,4.91
2023-01-05T17:52:48.909Z,4.89
2023-01-05T17:55:17.296Z,4.87
2023-01-05T17:57:46.038Z,4.85
2023-01-05T18:00:16.126Z,4.83
2023-01-05T18:02:45.061Z,4.82
2023-01-05T18:05:14.288Z,4.82
2023-01-05T18:07:42.490Z,4.83
2023-01-05T18:10:15.649Z,4.85
2023-01-05T18:12:44.503Z,4.86
2023-01-05T18:15:15.224Z,4.85
2023-01-05T18:17:45.979Z,4.83
2023-01-05T18:20:16.868Z,4.80
2023-01-05T18:22:46.961Z,4.80
2023-01-05T18:25:16.322Z,4.78
2023-01-05T18:27:47.498Z,4.77
2023-01-05T18:30:15.882Z,4.75
2023-01-05T18:32:45.721Z,4.76
2023-01-05T18:35:16.822Z,4.74
2023-01-05T18:37:47.148Z,4.72
2023-01-05T18:40:17.388Z,4.70
2023-01-05T18:42:45.819Z,4.69
2023-01-05T18:45:19.703Z,4.69
2023-01-05T18:48:04.268Z,4.68
2023-01-05T18:50:41.684Z,4.68
2023-01-05T18:53:10.268Z,4.67
2023-01-05T18:55:41.537Z,4.66
2023-01-05T18:58:14.705Z,4.64
2023-01-05T19:00:45.984Z,4.60
2023-01-05T19:03:14.141Z,4.56
2023-01-05T19:05:43.104Z,4.50
2023-01-05T19:08:12.631Z,4.46
2023-01-05T19:10:42.442Z,4.43
2023-01-05T19:13:10.397Z,4.36
2023-01-05T19:15:40.656Z,4.31
2023-01-05T19:18:10.142Z,4.26
2023-01-05T19:20:43.541Z,4.21
2023-01-05T19:23:14.222Z,4.16
2023-01-05T19:25:43.579Z,4.10
2023-01-05T19:28:12.989Z,4.05
2023-01-05T19:30:45.577Z,4.00
2023-01-05T19:33:13.734Z,3.95
2023-01-05T19:35:43.137Z,3.92
2023-01-05T19:38:14.074Z,3.85
2023-01-05T19:40:47.099Z,3.81
2023-01-05T19:43:15.160Z,3.77
2023-01-05T19:45:43.095Z,3.73
2023-01-05T19:48:11.051Z,3.70
2023-01-05T19:50:40.676Z,3.68
2023-01-05T19:53:08.589Z,3.65
2023-01-05T19:55:42.234Z,3.60
2023-01-05T19:58:10.275Z,3.57
2023-01-05T20:00:41.613Z,3.52
2023-01-05T20:03:09.507Z,3.47
2023-01-05T20:05:37.856Z,3.44
2023-01-05T20:08:08.223Z,3.42
2023-01-05T20:10:37.687Z,3.41
2023-01-05T20:13:11.879Z,3.38
2023-01-05T20:15:42.141Z,3.36
2023-01-05T20:18:11.328Z,3.32
2023-01-05T20:20:43.452Z,3.28
2023-01-05T20:23:11.411Z,3.26
2023-01-05T20:25:43.685Z,3.23
2023-01-05T20:28:12.006Z,3.22
2023-01-05T20:30:46.161Z,3.22
2023-01-05T20:33:16.916Z,3.20
2023-01-05T20:35:48.075Z,3.16
2023-01-05T20:38:16.127Z,3.13
2023-01-05T20:40:44.205Z,3.12
2023-01-05T20:43:13.086Z,3.10
2023-01-05T20:45:44.452Z,3.07
2023-01-05T20:48:12.337Z,3.04
2023-01-05T20:50:46.112Z,3.01
2023-01-05T20:53:14.304Z,2.99
2023-01-05T20:55:50.540Z,2.94
2023-01-05T20:58:21.175Z,2.90
2023-01-05T21:01:10.798Z,2.86
2023-01-05T21:03:44.182Z,2.83
2023-01-05T21:06:13.237Z,2.81
2023-01-05T21:08:44.820Z,2.81
2023-01-05T21:11:15.233Z,2.81
2023-01-05T21:13:46.742Z,2.81
2023-01-05T21:16:16.229Z,2.78
2023-01-05T21:18:44.596Z,2.76
2023-01-05T21:21:16.466Z,2.74
2023-01-05T21:23:45.273Z,2.72
2023-01-05T21:26:14.619Z,2.69
2023-01-05T21:28:44.675Z,2.65
2023-01-05T21:31:17.808Z,2.61
2023-01-05T21:33:48.908Z,2.59
2023-01-05T21:36:20.319Z,2.57
2023-01-05T21:39:01.648Z,2.55
2023-01-05T21:41:50.414Z,2.53
2023-01-05T21:44:19.344Z,2.50
2023-01-05T21:46:49.835Z,2.47
2023-01-05T21:49:21.553Z,2.41
2023-01-05T21:52:08.381Z,2.34
2023-01-05T21:54:55.977Z,2.29
2023-01-05T21:57:28.319Z,2.25
2023-01-05T21:59:56.756Z,2.23
2023-01-05T22:02:25.106Z,2.22
2023-01-05T22:04:55.589Z,2.22
2023-01-05T22:07:26.390Z,2.21
2023-01-05T22:09:57.648Z,2.20
2023-01-05T22:12:28.250Z,2.18
2023-01-05T22:14:56.928Z,2.16
2023-01-05T22:17:27.801Z,2.11
2023-01-05T22:19:55.851Z,2.05
2023-01-05T22:22:25.307Z,2.01
2023-01-05T22:24:54.054Z,1.98
2023-01-05T22:27:24.052Z,1.96
2023-01-05T22:29:53.913Z,1.94
2023-01-05T22:32:26.857Z,1.92
2023-01-05T22:34:55.985Z,1.87
2023-01-05T22:37:25.676Z,1.83
2023-01-05T22:39:53.642Z,1.80
2023-01-05T22:42:25.393Z,1.78
2023-01-05T22:44:58.409Z,1.76
2023-01-05T22:47:26.760Z,1.74
2023-01-05T22:49:55.177Z,1.72
2023-01-05T22:52:23.856Z,1.70
2023-01-05T22:54:57.004Z,1.68
2023-01-05T22:57:27.230Z,1.66
2023-01-05T22:59:57.463Z,1.62
2023-01-05T23:02:30.280Z,1.62
2023-01-05T23:05:03.158Z,1.60
2023-01-05T23:07:32.308Z,1.57
2023-01-05T23:10:00.329Z,1.54
2023-01-05T23:12:30.253Z,1.53
2023-01-05T23:14:58.315Z,1.52
2023-01-05T23:17:28.529Z,1.53
2023-01-05T23:19:57.029Z,1.52
2023-01-05T23:22:31.104Z,1.52
2023-01-05T23:25:10.433Z,1.51
2023-01-05T23:27:39.024Z,1.49
2023-01-05T23:30:10.684Z,1.47
2023-01-05T23:32:46.136Z,1.45
2023-01-05T23:35:15.061Z,1.42
2023-01-05T23:37:44.542Z,1.44
2023-01-05T23:40:12.842Z,1.43
2023-01-05T23:42:48.090Z,1.40
2023-01-05T23:45:16.347Z,1.39
2023-01-05T23:47:44.743Z,1.37
2023-01-05T23:50:12.699Z,1.33
2023-01-05T23:52:43.504Z,1.29
2023-01-05T23:55:13.221Z,1.26
2023-01-05T23:57:42.421Z,1.24
